createdAt,value
2017-08-01T00:01:11.582Z,5.70
2017-08-01T00:03:41.030Z,6.00
2017-08-01T00:06:10.492Z,6.73
2017-08-01T00:08:39.973Z,6.00
2017-08-01T00:11:10.249Z,5.67
2017-08-01T00:13:39.684Z,5.57
2017-08-01T00:16:09.149Z,6.27
2017-08-01T00:18:38.598Z,6.00
2017-08-01T00:21:08.051Z,5.13
2017-08-01T00:23:37.496Z,5.70
2017-08-01T00:26:06.968Z,5.77
2017-08-01T00:28:36.404Z,5.60
2017-08-01T00:31:05.869Z,6.70
2017-08-01T00:33:35.307Z,5.17
2017-08-01T00:36:04.778Z,6.00
2017-08-01T00:38:34.210Z,6.30
2017-08-01T00:41:03.645Z,5.93
2017-08-01T00:43:33.118Z,6.37
2017-08-01T00:46:02.581Z,6.13
2017-08-01T00:48:32.019Z,6.07
2017-08-01T00:51:01.464Z,6.83
2017-08-01T00:53:30.910Z,6.07
2017-08-01T00:56:00.336Z,5.47
2017-08-01T00:58:29.780Z,6.10
2017-08-01T01:00:59.248Z,6.03
2017-08-01T01:03:29.362Z,6.20
2017-08-01T01:05:58.806Z,5.97
2017-08-01T01:08:28.250Z,4.70
2017-08-01T01:10:57.696Z,5.03
2017-08-01T01:13:27.137Z,6.43
2017-08-01T01:15:56.633Z,5.83
2017-08-01T01:18:25.881Z,5.80
2017-08-01T01:20:55.338Z,6.40
2017-08-01T01:23:24.805Z,6.23
2017-08-01T01:25:54.248Z,4.90
2017-08-01T01:28:23.687Z,5.50
2017-08-01T01:30:53.145Z,5.27
2017-08-01T01:33:22.597Z,6.13
2017-08-01T01:35:52.046Z,6.00
2017-08-01T01:38:21.524Z,5.60
2017-08-01T01:40:50.634Z,5.43
2017-08-01T01:43:20.092Z,5.67
2017-08-01T01:45:49.541Z,6.00
2017-08-01T01:48:19.059Z,6.17
2017-08-01T01:50:49.008Z,7.03
2017-08-01T01:53:18.158Z,5.60
2017-08-01T01:55:47.580Z,6.17
2017-08-01T01:58:17.044Z,5.00
2017-08-01T02:00:46.165Z,5.17
2017-08-01T02:03:15.624Z,5.80
2017-08-01T02:05:45.069Z,5.83
2017-08-01T02:08:14.512Z,6.50
2017-08-01T02:10:44.005Z,5.67
2017-08-01T02:13:13.481Z,6.30
2017-08-01T02:15:42.916Z,5.70
2017-08-01T02:18:12.185Z,5.50
2017-08-01T02:20:41.637Z,5.23
2017-08-01T02:23:10.776Z,5.57
2017-08-01T02:25:40.071Z,6.20
2017-08-01T02:28:09.714Z,5.80
2017-08-01T02:30:39.152Z,5.40
2017-08-01T02:33:08.625Z,5.67
2017-08-01T02:35:38.110Z,6.83
2017-08-01T02:38:07.536Z,5.90
2017-08-01T02:40:37.026Z,6.03
2017-08-01T02:43:06.478Z,6.03
2017-08-01T02:45:35.908Z,6.47
2017-08-01T02:48:05.366Z,5.10
2017-08-01T02:50:34.815Z,5.33
2017-08-01T02:53:04.277Z,5.90
2017-08-01T02:55:33.708Z,5.60
2017-08-01T02:58:03.173Z,5.67
2017-08-01T03:00:32.615Z,5.77
2017-08-01T03:03:01.877Z,5.60
2017-08-01T03:05:31.328Z,5.83
2017-08-01T03:08:00.784Z,6.40
2017-08-01T03:10:30.242Z,5.30
2017-08-01T03:12:59.715Z,5.73
2017-08-01T03:15:29.137Z,5.70
2017-08-01T03:17:58.597Z,6.10
2017-08-01T03:20:28.059Z,5.83
2017-08-01T03:22:57.509Z,5.63
2017-08-01T03:25:26.960Z,5.37
2017-08-01T03:27:56.397Z,5.30
2017-08-01T03:30:25.857Z,5.43
2017-08-01T03:32:55.313Z,6.30
2017-08-01T03:35:24.774Z,5.03
2017-08-01T03:37:54.216Z,6.17
2017-08-01T03:40:23.735Z,6.10
2017-08-01T03:42:53.178Z,5.67
2017-08-01T03:45:22.688Z,5.70
2017-08-01T03:47:52.165Z,5.57
2017-08-01T03:50:21.672Z,5.80
2017-08-01T03:52:51.116Z,6.83
2017-08-01T03:55:20.610Z,5.90
2017-08-01T03:57:50.139Z,5.67
2017-08-01T04:00:19.618Z,5.20
2017-08-01T04:02:49.036Z,6.17
2017-08-01T04:05:18.533Z,6.93
2017-08-01T04:07:47.970Z,5.93
2017-08-01T04:10:17.465Z,5.97
2017-08-01T04:12:46.904Z,5.70
2017-08-01T04:15:16.528Z,5.80
2017-08-01T04:17:46.151Z,5.10
2017-08-01T04:20:15.621Z,6.30
2017-08-01T04:22:45.214Z,6.50
2017-08-01T04:25:14.681Z,5.80
2017-08-01T04:27:44.162Z,6.57
2017-08-01T04:30:13.628Z,6.00
2017-08-01T04:32:43.297Z,6.33
2017-08-01T04:35:12.781Z,5.97
2017-08-01T04:37:42.226Z,7.27
2017-08-01T04:40:11.685Z,5.60
2017-08-01T04:42:41.512Z,6.30
2017-08-01T04:45:10.998Z,6.77
2017-08-01T04:47:40.258Z,6.40
2017-08-01T04:50:09.736Z,6.30
2017-08-01T04:52:39.201Z,6.60
2017-08-01T04:55:08.698Z,5.70
2017-08-01T04:57:38.182Z,6.90
2017-08-01T05:00:07.668Z,6.30
2017-08-01T05:02:37.101Z,6.70
2017-08-01T05:05:06.601Z,5.90
2017-08-01T05:07:36.034Z,6.70
2017-08-01T05:10:05.605Z,6.60
2017-08-01T05:12:35.042Z,6.80
2017-08-01T05:15:04.588Z,6.20
2017-08-01T05:17:34.018Z,5.90
2017-08-01T05:20:03.592Z,6.13
2017-08-01T05:22:33.051Z,6.50
2017-08-01T05:25:02.569Z,5.97
2017-08-01T05:27:32.026Z,5.70
2017-08-01T05:30:01.476Z,5.07
2017-08-01T05:32:30.928Z,6.30
2017-08-01T05:35:00.447Z,5.90
2017-08-01T05:37:29.887Z,5.40
2017-08-01T05:39:59.349Z,5.77
2017-08-01T05:42:28.782Z,5.80
2017-08-01T05:44:58.237Z,6.07
2017-08-01T05:47:27.685Z,6.63
2017-08-01T05:49:57.139Z,6.50
2017-08-01T05:52:26.589Z,6.93
2017-08-01T05:54:56.029Z,7.47
2017-08-01T05:57:25.507Z,7.10
2017-08-01T05:59:54.968Z,6.10
2017-08-01T06:02:24.435Z,7.87
2017-08-01T06:04:53.890Z,7.83
2017-08-01T06:07:23.338Z,8.43
2017-08-01T06:09:52.771Z,7.13
2017-08-01T06:12:22.221Z,7.97
2017-08-01T06:14:51.492Z,9.43
2017-08-01T06:17:20.945Z,10.10
2017-08-01T06:19:50.400Z,14.00
2017-08-01T06:22:19.847Z,11.30
2017-08-01T06:24:49.305Z,12.47
2017-08-01T06:27:18.757Z,13.10
2017-08-01T06:29:48.213Z,12.90
2017-08-01T06:32:17.660Z,14.70
2017-08-01T06:34:47.115Z,16.13
2017-08-01T06:37:16.573Z,13.03
2017-08-01T06:39:45.835Z,12.90
2017-08-01T06:42:15.293Z,12.87
2017-08-01T06:44:44.736Z,13.40
2017-08-01T06:47:14.193Z,12.20
2017-08-01T06:49:43.648Z,15.17
2017-08-01T06:52:13.088Z,13.50
2017-08-01T06:54:42.546Z,11.90
2017-08-01T06:57:13.621Z,11.87
2017-08-01T06:59:43.060Z,11.80
2017-08-01T07:02:12.621Z,11.83
2017-08-01T07:04:42.078Z,11.30
2017-08-01T07:07:11.549Z,10.53
2017-08-01T07:09:40.986Z,11.93
2017-08-01T07:12:10.439Z,9.87
2017-08-01T07:14:39.895Z,9.67
2017-08-01T07:17:09.340Z,8.33
2017-08-01T07:19:38.902Z,7.30
2017-08-01T07:22:08.359Z,7.77
2017-08-01T07:24:37.805Z,6.63
2017-08-01T07:27:07.275Z,6.37
2017-08-01T07:29:36.729Z,6.33
2017-08-01T07:32:06.177Z,6.10
2017-08-01T07:34:35.623Z,5.50
2017-08-01T07:37:04.879Z,6.20
2017-08-01T07:39:34.331Z,6.03
2017-08-01T07:42:03.806Z,6.77
2017-08-01T07:44:33.263Z,7.17
2017-08-01T07:47:02.716Z,6.93
2017-08-01T07:49:32.172Z,5.30
2017-08-01T07:52:01.627Z,5.93
2017-08-01T07:54:31.076Z,6.53
2017-08-01T07:57:00.534Z,5.57
2017-08-01T07:59:29.988Z,5.43
2017-08-01T08:01:59.426Z,4.23
2017-08-01T08:04:28.885Z,4.77
2017-08-01T08:06:58.352Z,5.20
2017-08-01T08:09:27.784Z,4.80
2017-08-01T08:11:57.234Z,5.60
2017-08-01T08:14:26.682Z,5.50
2017-08-01T08:16:56.124Z,5.30
2017-08-01T08:19:25.576Z,5.10
2017-08-01T08:21:55.033Z,5.20
2017-08-01T08:24:24.492Z,5.13
2017-08-01T08:26:53.925Z,5.70
2017-08-01T08:29:23.396Z,5.70
2017-08-01T08:31:52.830Z,5.20
2017-08-01T08:34:22.283Z,5.00
2017-08-01T08:36:51.731Z,5.60
2017-08-01T08:39:21.164Z,5.00
2017-08-01T08:41:50.617Z,5.27
2017-08-01T08:44:20.059Z,4.63
2017-08-01T08:46:49.514Z,5.20
2017-08-01T08:49:18.958Z,5.50
2017-08-01T08:51:48.413Z,4.60
2017-08-01T08:54:17.877Z,4.53
2017-08-01T08:56:47.346Z,5.30
2017-08-01T08:59:16.799Z,4.80
2017-08-01T09:01:46.249Z,5.00
2017-08-01T09:04:15.712Z,4.83
2017-08-01T09:06:45.160Z,4.60
2017-08-01T09:09:14.623Z,5.20
2017-08-01T09:11:44.736Z,5.53
2017-08-01T09:14:14.188Z,4.70
2017-08-01T09:16:43.632Z,4.97
2017-08-01T09:19:13.101Z,4.90
2017-08-01T09:21:42.554Z,5.10
2017-08-01T09:24:12.002Z,4.97
2017-08-01T09:26:41.445Z,4.97
2017-08-01T09:29:10.728Z,5.77
2017-08-01T09:31:40.169Z,5.20
2017-08-01T09:34:09.621Z,5.30
2017-08-01T09:36:39.077Z,5.80
2017-08-01T09:39:08.522Z,5.37
2017-08-01T09:41:37.971Z,5.87
2017-08-01T09:44:07.426Z,5.67
2017-08-01T09:46:36.861Z,5.20
2017-08-01T09:49:06.317Z,6.23
2017-08-01T09:51:35.757Z,5.30
2017-08-01T09:54:05.193Z,5.53
2017-08-01T09:56:34.643Z,5.20
2017-08-01T09:59:04.101Z,5.97
2017-08-01T10:01:33.556Z,5.33
2017-08-01T10:04:02.986Z,6.00
2017-08-01T10:06:32.449Z,5.83
2017-08-01T10:09:01.905Z,6.10
2017-08-01T10:11:31.363Z,6.33
2017-08-01T10:14:00.803Z,5.40
2017-08-01T10:16:30.257Z,5.70
2017-08-01T10:18:59.892Z,6.10
2017-08-01T10:21:29.335Z,5.77
2017-08-01T10:23:58.770Z,5.83
2017-08-01T10:26:28.218Z,5.47
2017-08-01T10:28:57.678Z,5.87
2017-08-01T10:31:27.138Z,6.03
2017-08-01T10:33:56.582Z,5.70
2017-08-01T10:36:26.025Z,5.57
2017-08-01T10:38:55.464Z,5.63
2017-08-01T10:41:24.916Z,5.30
2017-08-01T10:43:54.379Z,4.90
2017-08-01T10:46:23.823Z,5.33
2017-08-01T10:48:53.273Z,5.70
2017-08-01T10:51:22.744Z,5.20
2017-08-01T10:53:52.200Z,5.50
2017-08-01T10:56:21.654Z,5.37
2017-08-01T10:58:51.095Z,4.90
2017-08-01T11:01:20.550Z,5.03
2017-08-01T11:03:50.000Z,4.83
2017-08-01T11:06:19.481Z,5.27
2017-08-01T11:08:48.917Z,5.47
2017-08-01T11:11:18.365Z,5.13
2017-08-01T11:13:47.824Z,6.17
2017-08-01T11:16:17.312Z,5.93
2017-08-01T11:18:46.769Z,7.00
2017-08-01T11:21:16.222Z,6.67
2017-08-01T11:23:45.680Z,7.00
2017-08-01T11:26:15.141Z,8.23
2017-08-01T11:28:44.602Z,7.40
2017-08-01T11:31:14.040Z,7.50
2017-08-01T11:33:43.498Z,8.30
2017-08-01T11:36:12.960Z,6.90
2017-08-01T11:38:42.405Z,6.87
2017-08-01T11:41:11.868Z,6.83
2017-08-01T11:43:41.318Z,5.60
2017-08-01T11:46:10.770Z,6.40
2017-08-01T11:48:40.242Z,5.83
2017-08-01T11:51:09.502Z,6.00
2017-08-01T11:53:38.940Z,6.53
2017-08-01T11:56:08.454Z,6.50
2017-08-01T11:58:37.884Z,5.97
2017-08-01T12:01:07.577Z,6.20
2017-08-01T12:03:37.048Z,5.97
2017-08-01T12:06:06.513Z,6.07
2017-08-01T12:08:35.948Z,5.27
2017-08-01T12:11:05.479Z,5.00
2017-08-01T12:13:34.908Z,5.70
2017-08-01T12:16:04.360Z,6.03
2017-08-01T12:18:33.824Z,5.13
2017-08-01T12:21:03.273Z,5.10
2017-08-01T12:23:32.749Z,5.70
2017-08-01T12:26:02.212Z,5.20
2017-08-01T12:28:31.758Z,5.37
2017-08-01T12:31:01.023Z,5.40
2017-08-01T12:33:30.456Z,5.20
2017-08-01T12:35:59.892Z,5.03
2017-08-01T12:38:29.165Z,5.53
2017-08-01T12:40:58.636Z,4.87
2017-08-01T12:43:28.097Z,4.67
2017-08-01T12:45:57.648Z,4.87
2017-08-01T12:48:27.088Z,5.13
2017-08-01T12:50:56.529Z,4.33
2017-08-01T12:53:25.970Z,4.20
2017-08-01T12:55:55.434Z,4.33
2017-08-01T12:58:24.887Z,4.07
2017-08-01T13:00:54.367Z,4.20
2017-08-01T13:03:23.803Z,4.03
2017-08-01T13:05:53.255Z,3.93
2017-08-01T13:08:22.697Z,4.27
2017-08-01T13:10:52.138Z,3.83
2017-08-01T13:13:21.577Z,3.90
2017-08-01T13:15:51.021Z,3.60
2017-08-01T13:18:20.484Z,3.37
2017-08-01T13:20:49.925Z,3.70
2017-08-01T13:23:19.369Z,3.27
2017-08-01T13:25:49.410Z,3.30
2017-08-01T13:28:18.842Z,2.67
2017-08-01T13:30:48.277Z,3.10
2017-08-01T13:33:17.733Z,3.53
2017-08-01T13:35:47.765Z,3.17
2017-08-01T13:38:17.793Z,3.78
2017-08-01T13:40:47.819Z,3.42
2017-08-01T13:43:17.826Z,3.58
2017-08-01T13:45:47.841Z,3.60
2017-08-01T13:48:17.849Z,3.20
2017-08-01T13:50:47.868Z,3.12
2017-08-01T13:53:17.905Z,3.40
2017-08-01T13:55:47.904Z,3.17
2017-08-01T13:58:17.917Z,2.75
2017-08-01T14:00:47.934Z,2.50
2017-08-01T14:03:17.950Z,2.92
2017-08-01T14:05:47.969Z,2.80
2017-08-01T14:08:17.989Z,2.90
2017-08-01T14:10:48.024Z,2.92
2017-08-01T14:13:18.047Z,3.05
2017-08-01T14:15:48.044Z,3.10
2017-08-01T14:18:18.046Z,3.30
2017-08-01T14:20:48.124Z,3.15
2017-08-01T14:23:18.133Z,3.12
2017-08-01T14:25:48.161Z,3.03
2017-08-01T14:28:18.172Z,2.90
2017-08-01T14:30:48.169Z,3.15
2017-08-01T14:33:18.185Z,2.78
2017-08-01T14:35:48.195Z,3.20
2017-08-01T14:38:18.201Z,3.25
2017-08-01T14:40:48.217Z,2.95
2017-08-01T14:43:18.715Z,3.03
2017-08-01T14:45:48.760Z,2.80
2017-08-01T14:48:18.764Z,2.90
2017-08-01T14:50:49.322Z,2.67
2017-08-01T14:53:19.320Z,2.60
2017-08-01T14:55:49.329Z,2.45
2017-08-01T14:58:19.357Z,3.00
2017-08-01T15:00:49.385Z,2.70
2017-08-01T15:03:19.388Z,3.33
2017-08-01T15:05:49.434Z,2.45
2017-08-01T15:08:19.454Z,2.87
2017-08-01T15:10:49.484Z,2.55
2017-08-01T15:13:19.509Z,3.10
2017-08-01T15:15:49.516Z,2.95
2017-08-01T15:18:19.545Z,3.10
2017-08-01T15:20:49.549Z,2.37
2017-08-01T15:23:19.561Z,2.53
2017-08-01T15:25:49.632Z,2.90
2017-08-01T15:28:19.681Z,2.90
2017-08-01T15:30:49.843Z,3.47
2017-08-01T15:33:19.854Z,3.28
2017-08-01T15:35:49.676Z,2.90
2017-08-01T15:38:19.699Z,2.80
2017-08-01T15:40:49.720Z,3.05
2017-08-01T15:43:19.772Z,3.03
2017-08-01T15:45:49.763Z,2.85
2017-08-01T15:48:19.834Z,2.65
2017-08-01T15:50:50.158Z,3.10
2017-08-01T15:53:20.166Z,2.92
2017-08-01T15:55:50.206Z,3.00
2017-08-01T15:58:20.236Z,2.58
2017-08-01T16:00:50.270Z,2.45
2017-08-01T16:03:19.712Z,3.33
2017-08-01T16:05:49.721Z,2.80
2017-08-01T16:08:19.755Z,3.25
2017-08-01T16:10:49.763Z,2.67
2017-08-01T16:13:19.774Z,3.08
2017-08-01T16:15:49.804Z,2.40
2017-08-01T16:18:19.849Z,3.05
2017-08-01T16:20:49.881Z,2.92
2017-08-01T16:23:19.902Z,2.72
2017-08-01T16:25:49.913Z,3.00
2017-08-01T16:28:19.944Z,3.40
2017-08-01T16:30:50.007Z,3.05
2017-08-01T16:33:20.036Z,2.85
2017-08-01T16:35:50.058Z,3.17
2017-08-01T16:38:19.531Z,2.93
2017-08-01T16:40:49.544Z,3.00
2017-08-01T16:43:19.552Z,3.05
2017-08-01T16:45:49.012Z,2.87
2017-08-01T16:48:18.468Z,3.10
2017-08-01T16:50:47.905Z,3.27
2017-08-01T16:53:17.338Z,3.37
2017-08-01T16:55:46.801Z,2.80
2017-08-01T16:58:16.254Z,3.40
2017-08-01T17:00:45.694Z,3.13
2017-08-01T17:03:15.150Z,3.30
2017-08-01T17:05:44.596Z,3.67
2017-08-01T17:08:14.053Z,3.93
2017-08-01T17:10:43.516Z,3.50
2017-08-01T17:13:12.952Z,3.53
2017-08-01T17:15:42.385Z,3.67
2017-08-01T17:18:11.952Z,4.83
2017-08-01T17:20:41.393Z,3.40
2017-08-01T17:23:10.716Z,4.40
2017-08-01T17:25:40.201Z,4.87
2017-08-01T17:28:09.647Z,3.90
2017-08-01T17:30:39.099Z,3.63
2017-08-01T17:33:08.581Z,6.10
2017-08-01T17:35:38.033Z,4.40
2017-08-01T17:38:07.494Z,4.10
2017-08-01T17:40:36.929Z,4.43
2017-08-01T17:43:06.388Z,4.37
2017-08-01T17:45:35.869Z,4.87
2017-08-01T17:48:05.322Z,4.40
2017-08-01T17:50:34.809Z,5.50
2017-08-01T17:53:04.290Z,5.40
2017-08-01T17:55:33.730Z,5.30
2017-08-01T17:58:03.174Z,5.37
2017-08-01T18:00:32.643Z,5.40
2017-08-01T18:03:02.092Z,5.00
2017-08-01T18:05:31.894Z,5.33
2017-08-01T18:08:01.429Z,6.23
2017-08-01T18:10:30.920Z,7.00
2017-08-01T18:13:00.465Z,7.53
2017-08-01T18:15:29.924Z,6.83
2017-08-01T18:17:59.382Z,5.63
2017-08-01T18:20:28.879Z,6.03
2017-08-01T18:22:58.329Z,5.73
2017-08-01T18:25:27.757Z,6.10
2017-08-01T18:27:57.308Z,5.70
2017-08-01T18:30:26.765Z,8.30
2017-08-01T18:32:56.224Z,8.07
2017-08-01T18:35:25.681Z,9.43
2017-08-01T18:37:55.146Z,10.73
2017-08-01T18:40:24.649Z,7.40
2017-08-01T18:42:54.123Z,7.33
2017-08-01T18:45:23.648Z,7.10
2017-08-01T18:47:53.105Z,9.63
2017-08-01T18:50:22.628Z,6.30
2017-08-01T18:52:52.083Z,6.90
2017-08-01T18:55:21.724Z,7.43
2017-08-01T18:57:51.022Z,5.93
2017-08-01T19:00:20.503Z,6.80
2017-08-01T19:02:49.769Z,6.67
2017-08-01T19:05:19.466Z,6.40
2017-08-01T19:07:49.158Z,7.10
2017-08-01T19:10:19.178Z,5.87
2017-08-01T19:12:48.768Z,7.37
2017-08-01T19:15:18.516Z,7.30
2017-08-01T19:17:48.046Z,7.03
2017-08-01T19:20:18.242Z,6.90
2017-08-01T19:22:47.807Z,6.77
2017-08-01T19:25:17.643Z,6.50
2017-08-01T19:27:47.474Z,7.20
2017-08-01T19:30:17.127Z,7.47
2017-08-01T19:32:46.690Z,6.80
2017-08-01T19:35:16.284Z,6.77
2017-08-01T19:37:45.843Z,7.70
2017-08-01T19:40:15.504Z,6.30
2017-08-01T19:42:45.207Z,6.83
2017-08-01T19:45:14.713Z,6.60
2017-08-01T19:47:44.144Z,6.80
2017-08-01T19:50:13.654Z,7.37
2017-08-01T19:52:43.512Z,7.30
2017-08-01T19:55:13.146Z,7.03
2017-08-01T19:57:43.210Z,7.50
2017-08-01T20:00:12.877Z,7.20
2017-08-01T20:02:42.823Z,6.73
2017-08-01T20:05:12.547Z,7.47
2017-08-01T20:07:41.824Z,7.90
2017-08-01T20:10:11.542Z,8.00
2017-08-01T20:12:41.729Z,7.50
2017-08-01T20:15:11.545Z,7.27
2017-08-01T20:17:41.306Z,7.30
2017-08-01T20:20:11.101Z,7.77
2017-08-01T20:22:42.203Z,7.57
2017-08-01T20:25:12.248Z,7.90
2017-08-01T20:27:42.090Z,7.50
2017-08-01T20:30:11.669Z,7.80
2017-08-01T20:32:41.499Z,7.90
2017-08-01T20:35:11.466Z,7.83
2017-08-01T20:37:41.190Z,7.93
2017-08-01T20:40:10.840Z,8.00
2017-08-01T20:42:40.465Z,8.23
2017-08-01T20:45:10.209Z,8.60
2017-08-01T20:47:39.837Z,7.77
2017-08-01T20:50:09.622Z,8.73
2017-08-01T20:52:39.709Z,8.73
2017-08-01T20:55:09.443Z,8.57
2017-08-01T20:57:39.274Z,7.93
2017-08-01T21:00:09.214Z,8.60
2017-08-01T21:02:39.086Z,10.60
2017-08-01T21:05:08.940Z,8.70
2017-08-01T21:07:38.865Z,8.20
2017-08-01T21:10:08.603Z,8.90
2017-08-01T21:12:38.462Z,8.07
2017-08-01T21:15:08.217Z,8.43
2017-08-01T21:17:37.845Z,10.07
2017-08-01T21:20:07.424Z,9.40
2017-08-01T21:22:37.216Z,8.85
2017-08-01T21:25:06.697Z,8.90
2017-08-01T21:27:36.146Z,8.87
2017-08-01T21:30:05.640Z,9.30
2017-08-01T21:32:35.105Z,11.83
2017-08-01T21:35:04.608Z,9.50
2017-08-01T21:37:34.081Z,8.90
2017-08-01T21:40:03.562Z,8.70
2017-08-01T21:42:33.001Z,8.20
2017-08-01T21:45:02.504Z,9.00
2017-08-01T21:47:31.950Z,8.77
2017-08-01T21:50:01.487Z,8.03
2017-08-01T21:52:30.937Z,8.90
2017-08-01T21:55:00.393Z,9.83
2017-08-01T21:57:29.852Z,8.67
2017-08-01T21:59:59.403Z,8.47
2017-08-01T22:02:28.832Z,8.20
2017-08-01T22:04:58.289Z,9.07
2017-08-01T22:07:27.757Z,8.40
2017-08-01T22:09:57.296Z,7.80
2017-08-01T22:12:26.757Z,8.37
2017-08-01T22:14:56.217Z,7.50
2017-08-01T22:17:25.668Z,7.07
2017-08-01T22:19:55.117Z,7.00
2017-08-01T22:22:24.574Z,7.27
2017-08-01T22:24:54.049Z,7.30
2017-08-01T22:27:23.484Z,6.93
2017-08-01T22:29:52.948Z,7.47
2017-08-01T22:32:22.388Z,7.40
2017-08-01T22:34:51.841Z,6.83
2017-08-01T22:37:21.304Z,6.57
2017-08-01T22:39:50.749Z,7.03
2017-08-01T22:42:20.199Z,6.93
2017-08-01T22:44:49.664Z,7.00
2017-08-01T22:47:19.151Z,7.13
2017-08-01T22:49:48.590Z,6.57
2017-08-01T22:52:18.041Z,6.03
2017-08-01T22:54:47.515Z,5.60
2017-08-01T22:57:17.024Z,5.50
2017-08-01T22:59:46.486Z,6.03
2017-08-01T23:02:15.942Z,6.77
2017-08-01T23:04:45.389Z,6.20
2017-08-01T23:07:14.856Z,5.60
2017-08-01T23:09:44.309Z,6.33
2017-08-01T23:12:13.737Z,5.23
2017-08-01T23:14:43.314Z,5.77
2017-08-01T23:17:12.739Z,7.13
2017-08-01T23:19:42.191Z,5.70
2017-08-01T23:22:11.640Z,7.30
2017-08-01T23:24:41.018Z,5.17
2017-08-01T23:27:10.465Z,5.47
2017-08-01T23:29:39.906Z,5.53
2017-08-01T23:32:09.356Z,6.43
2017-08-01T23:34:38.808Z,5.87
2017-08-01T23:37:08.268Z,5.77
2017-08-01T23:39:37.709Z,5.97
2017-08-01T23:42:07.182Z,6.13
2017-08-01T23:44:36.628Z,5.67
2017-08-01T23:47:06.069Z,5.97
2017-08-01T23:49:35.513Z,6.77
2017-08-01T23:52:04.968Z,6.53
2017-08-01T23:54:34.400Z,6.30
2017-08-01T23:57:03.851Z,5.53
2017-08-01T23:59:33.297Z,6.57
